Tyler, TX (75701)

4:30 AM CST on February 07, 2016 (GMT -0600)
Front and Broadway | | Change Station
CLOSE
Current Station
Personal Weather Station
Location: Tyler, TX
Elevation: 558 ft
Nearby Weather Stations

Elev 558 ft 32.35 °N, 95.30 °W | Updated 11 minutes ago

Partly Cloudy
Partly Cloudy
36.7 °F
Feels Like 37 °F
N
2.2
Wind Variable Wind from SSW

Today
High -- | Low -- °F
--% Chance of Precip.
Yesterday
High -- | Low -- °F
Precip. -- in
Pressure 30.26 in
Visibility -9999.0 miles
Clouds Scattered Clouds 100 ft
Windchill 37 °F
Dew Point 35 °F
Humidity 95%
Rainfall 0.00 in
Snow Depth Not available.
7:11 AM 5:59 PM
Waning Crescent, 2% visible
SPECI KTYR 071016Z 16005KT SCT001 00/M02 A3026 RMK AO2 T00001017 $
Pressure 30.26 in
Visibility -9999.0 miles
Clouds Scattered Clouds 100 ft
Windchill 37 °F
Dew Point 35 °F
Humidity 95%
Rainfall 0.00 in
Snow Depth Not available.
7:11 AM 5:59 PM
Waning Crescent, 2% visible
SPECI KTYR 071016Z 16005KT SCT001 00/M02 A3026 RMK AO2 T00001017 $

10-Day Weather Forecast

Almanac

Astronomy

Feb. 07, 2016 Rise Set
Actual Time
Civil Twilight
Nautical Twilight
Astronomical Twilight
Moon
Length of Visible Light
Length of Day
Tomorrow will be .
, % of the Moon is Illuminated

Today's Extremes

State Highs State Lows

Community

WunderPhotos

Upload Photos

1,891,171 photos uploaded!

WunderBlog® & News

Nearby

Air Quality

  Air Quality AQ Index Pollutant
Not available.

Snow Depth

Station Depth Elevation

Earthquake Activity

City Distance Mag. Time & Date
Minimum magnitude displayed is 2.5.

Coastal Water Temperatures

Place Temperature

Stations

Nearby Weather Stations

Station Location Temp. Windchill Dew Point Humidity Wind Precip. Elev Updated Type
                   

Watches & Warnings

There are currently no watches in effect.